Time;durP1;ratioP1;P1;durP2;ratioP2;P2;SDS_P1;SDS_P2;PMS_P1;PMS_P2;Temp;Humidity;BMP_temperature;BMP_pressure;BME280_temperature;BME280_humidity;BME280_pressure;Samples;Min_cycle;Max_cycle;Signal;HPM_P1;HPM_P2
2021/06/07 00:02:06;;;;;;;18.83;12.60;;;16.30;1.00;;;-143.32;100.00;52136.28;5013622;28;20563;-89
2021/06/07 00:04:33;;;;;;;21.90;13.60;;;16.30;39.30;;;-143.32;100.00;52148.41;5014169;28;20456;-90
2021/06/07 00:07:03;;;;;;;21.40;13.70;;;16.30;49.20;;;-143.32;100.00;52150.41;5017361;28;20484;-88
2021/06/07 00:09:30;;;;;;;24.10;15.67;;;16.30;65.10;;;-143.32;100.00;52176.66;5017126;28;20445;-88
2021/06/07 00:12:00;;;;;;;18.67;13.80;;;16.30;51.30;;;-143.32;100.00;52162.53;5017435;28;20446;-88
2021/06/07 00:14:30;;;;;;;21.60;15.30;;;16.30;26.70;;;-143.32;100.00;52114.09;5017453;28;20450;-89
2021/06/07 00:16:58;;;;;;;21.43;14.70;;;16.30;99.90;;;-143.32;100.00;52138.31;5017266;28;20476;-88
2021/06/07 00:19:30;;;;;;;22.07;15.33;;;16.20;99.90;;;-143.32;100.00;52154.47;5017010;28;20573;-88
2021/06/07 00:21:57;;;;;;;21.53;14.50;;;16.20;93.60;;;-143.32;100.00;52146.38;5017287;28;20523;-88
2021/06/07 00:24:28;;;;;;;23.20;14.97;;;16.20;99.90;;;-143.32;100.00;52176.66;5016835;28;20450;-89
2021/06/07 00:26:57;;;;;;;22.80;14.90;;;16.30;99.90;;;-143.32;100.00;52168.59;5017846;28;20454;-89
2021/06/07 00:29:23;;;;;;;26.40;16.17;;;16.20;95.70;;;-143.32;100.00;52134.28;5017058;28;20484;-89
2021/06/07 00:31:50;;;;;;;20.10;14.40;;;16.30;99.90;;;-143.32;100.00;52146.38;5017161;28;20505;-89
2021/06/07 00:34:17;;;;;;;26.50;15.97;;;16.30;99.90;;;-143.32;100.00;52144.38;5017845;28;20789;-90
2021/06/07 00:36:44;;;;;;;21.30;14.57;;;16.30;99.90;;;-143.32;100.00;52132.25;5016942;28;20536;-88
2021/06/07 00:39:13;;;;;;;23.90;15.10;;;16.20;99.90;;;-143.32;100.00;52122.16;5016872;28;20474;-88
2021/06/07 00:41:44;;;;;;;23.97;15.63;;;16.20;99.90;;;-143.32;100.00;52128.22;5016548;28;20434;-89
2021/06/07 00:44:15;;;;;;;31.10;16.70;;;16.30;99.90;;;-143.32;100.00;52168.59;5016665;28;20719;-89
2021/06/07 00:46:43;;;;;;;21.87;15.50;;;16.30;96.10;;;-143.32;100.00;52134.28;5016636;28;20441;-89
2021/06/07 00:49:10;;;;;;;39.77;16.33;;;16.30;99.90;;;-143.32;100.00;52168.59;5016628;28;20458;-88
2021/06/07 00:51:38;;;;;;;26.40;18.07;;;16.20;99.90;;;-143.32;100.00;52150.41;5017004;28;20453;-89
2021/06/07 00:54:07;;;;;;;28.03;16.90;;;16.20;99.90;;;-143.32;100.00;52134.28;5016626;28;20492;-89
2021/06/07 00:56:34;;;;;;;25.03;17.80;;;16.20;99.90;;;-143.32;100.00;52148.41;5016306;28;20548;-90
2021/06/07 00:59:02;;;;;;;25.80;17.53;;;16.20;99.90;;;-143.32;100.00;52162.53;5016466;28;20804;-88
2021/06/07 01:01:29;;;;;;;30.30;18.10;;;16.20;99.90;;;-143.32;100.00;52158.50;5016279;28;20454;-88
2021/06/07 01:03:59;;;;;;;32.77;18.30;;;16.20;99.90;;;-143.32;100.00;52170.63;5016405;28;20449;-88
2021/06/07 01:06:27;;;;;;;24.60;17.30;;;16.20;99.90;;;-143.32;100.00;52150.41;5016438;28;20454;-88
2021/06/07 01:08:54;;;;;;;27.20;18.93;;;16.20;99.90;;;-143.32;100.00;52178.69;5016777;28;20473;-89
2021/06/07 01:11:21;;;;;;;29.80;18.87;;;16.20;99.90;;;-143.32;100.00;52184.75;5016410;28;20449;-89
2021/06/07 01:13:50;;;;;;;30.60;19.00;;;16.20;99.90;;;-143.32;100.00;52148.41;5016236;28;20453;-88
2021/06/07 01:16:18;;;;;;;34.13;18.47;;;16.20;99.90;;;-143.32;100.00;52184.75;5015620;28;20446;-88
2021/06/07 01:18:46;;;;;;;32.73;18.70;;;16.20;99.90;;;-143.32;100.00;52172.63;5015670;28;20450;-88
2021/06/07 01:21:17;;;;;;;34.43;18.70;;;16.10;99.90;;;-143.32;100.00;52142.34;5016109;28;20500;-89
2021/06/07 01:23:47;;;;;;;34.53;18.80;;;16.10;99.90;;;-143.32;100.00;52148.41;5016060;28;20427;-88
2021/06/07 01:26:18;;;;;;;41.20;21.60;;;16.10;99.90;;;-143.32;100.00;52176.66;5016034;28;20963;-87
2021/06/07 01:28:46;;;;;;;29.90;19.10;;;16.00;99.90;;;-143.32;100.00;52237.25;5015759;28;20466;-88
2021/06/07 01:31:14;;;;;;;33.47;18.50;;;16.00;65.80;;;-143.32;100.00;52249.34;5015568;28;20536;-88
2021/06/07 01:33:44;;;;;;;30.70;17.77;;;16.10;1.00;;;-143.32;100.00;52235.22;5015979;28;20445;-88
2021/06/07 01:36:11;;;;;;;29.37;16.67;;;15.90;1.00;;;-143.32;100.00;52299.81;5015901;28;20525;-88
2021/06/07 01:38:38;;;;;;;31.03;17.73;;;15.90;1.00;;;-143.32;100.00;52271.56;5015383;28;21058;-88
2021/06/07 01:41:13;;;;;;;30.97;17.70;;;15.90;1.00;;;-143.32;100.00;52330.13;5015677;28;20450;-89
2021/06/07 01:43:40;;;;;;;32.30;16.83;;;15.80;99.90;;;-143.32;100.00;52324.06;5015688;28;20418;-90
2021/06/07 01:46:07;;;;;;;25.53;16.50;;;15.70;1.00;;;-143.32;100.00;52291.75;5015654;28;20450;-88
2021/06/07 01:48:35;;;;;;;25.33;15.10;;;15.70;1.00;;;-143.32;100.00;52309.94;5015649;28;20449;-88
2021/06/07 01:51:05;;;;;;;30.67;15.80;;;15.70;1.00;;;-143.32;100.00;52326.06;5015769;28;20457;-88
2021/06/07 01:53:32;;;;;;;30.90;16.70;;;15.70;99.90;;;-143.32;100.00;52309.94;5016316;28;20423;-89
2021/06/07 01:56:02;;;;;;;33.40;16.30;;;15.60;99.90;;;-143.32;100.00;52334.16;5015139;28;20966;-88
2021/06/07 01:58:30;;;;;;;33.93;17.70;;;15.60;1.00;;;-143.32;100.00;52334.16;5014831;28;20486;-88
2021/06/07 02:01:00;;;;;;;29.13;15.90;;;15.60;99.90;;;-143.32;100.00;52374.53;5015052;28;20434;-89
2021/06/07 02:03:27;;;;;;;26.90;16.37;;;15.60;99.90;;;-143.32;100.00;52340.22;5015003;28;20461;-88
2021/06/07 02:05:57;;;;;;;29.30;15.87;;;15.60;1.00;;;-143.32;100.00;52332.13;5015485;28;20446;-89
2021/06/07 02:08:29;;;;;;;29.93;15.97;;;15.60;1.00;;;-143.32;100.00;52350.31;5015182;28;20426;-88
2021/06/07 02:11:01;;;;;;;33.57;16.33;;;15.50;1.00;;;-143.32;100.00;52348.28;5015394;28;20430;-89
2021/06/07 02:13:27;;;;;;;27.90;15.43;;;15.50;1.00;;;-143.32;100.00;52380.59;5015514;28;20482;-90
2021/06/07 02:15:58;;;;;;;31.43;16.33;;;15.50;1.00;;;-143.32;100.00;52372.50;5014966;28;20462;-89
2021/06/07 02:18:25;;;;;;;34.03;15.20;;;15.50;1.00;;;-143.32;100.00;52364.44;5015535;28;20492;-89
2021/06/07 02:20:52;;;;;;;25.03;15.40;;;15.40;99.90;;;-143.32;100.00;52360.41;5014934;28;20928;-89
2021/06/07 02:23:19;;;;;;;28.53;15.77;;;15.50;99.90;;;-143.32;100.00;52372.50;5014595;28;20984;-88
2021/06/07 02:25:46;;;;;;;26.47;14.03;;;15.50;99.90;;;-143.32;100.00;52388.66;5014906;28;20867;-88
2021/06/07 02:28:16;;;;;;;24.30;15.60;;;15.50;99.90;;;-143.32;100.00;52340.22;5014390;28;20485;-87
2021/06/07 02:30:44;;;;;;;27.83;16.20;;;15.40;1.00;;;-143.32;100.00;52362.41;5014572;28;20893;-89
2021/06/07 02:33:13;;;;;;;28.83;17.00;;;15.50;99.90;;;-143.32;100.00;52394.72;5014742;28;20449;-88
2021/06/07 02:35:40;;;;;;;23.17;15.50;;;15.50;99.90;;;-143.32;100.00;52396.75;5014450;28;20442;-89
2021/06/07 02:38:07;;;;;;;28.00;15.40;;;15.50;99.90;;;-143.32;100.00;52384.63;5014118;28;20485;-88
2021/06/07 02:40:43;;;;;;;27.10;16.93;;;15.50;1.00;;;-143.32;100.00;52414.91;5014592;28;20457;-89
2021/06/07 02:43:09;;;;;;;24.33;16.23;;;15.50;1.00;;;-143.32;100.00;52362.41;5014866;28;20425;-90
2021/06/07 02:45:36;;;;;;;27.30;16.87;;;15.40;99.90;;;-143.32;100.00;52358.38;5014540;28;20446;-89
2021/06/07 02:48:05;;;;;;;23.17;16.33;;;15.40;1.00;;;-143.32;100.00;52390.69;5014545;28;20446;-88
2021/06/07 02:50:36;;;;;;;24.53;16.23;;;15.30;1.00;;;-143.32;100.00;52392.72;5014807;28;20450;-88
2021/06/07 02:53:04;;;;;;;22.50;16.27;;;15.40;1.00;;;-143.32;100.00;52374.53;5014305;28;20438;-88
2021/06/07 02:55:35;;;;;;;31.87;16.03;;;15.40;1.00;;;-143.32;100.00;52372.50;5014469;28;20454;-90
2021/06/07 02:58:02;;;;;;;29.03;16.33;;;15.40;1.00;;;-143.32;100.00;52358.38;5013669;28;20517;-89
2021/06/07 03:00:32;;;;;;;24.17;16.63;;;15.40;1.00;;;-143.32;100.00;52396.75;5014269;28;20458;-88
2021/06/07 03:03:01;;;;;;;34.73;18.10;;;15.40;1.00;;;-143.32;100.00;52400.78;5014160;28;20461;-88
2021/06/07 03:05:29;;;;;;;26.67;17.27;;;15.40;1.00;;;-143.32;100.00;52368.47;5014401;28;20960;-90
2021/06/07 03:07:57;;;;;;;31.43;17.53;;;15.40;1.00;;;-143.32;100.00;52346.28;5014183;28;20472;-89
2021/06/07 03:10:24;;;;;;;30.80;17.97;;;15.40;1.00;;;-143.32;100.00;52366.47;5013822;28;20489;-88
2021/06/07 03:12:51;;;;;;;27.60;16.80;;;15.30;1.00;;;-143.32;100.00;52384.63;5014041;28;20940;-88
2021/06/07 03:15:19;;;;;;;23.30;16.70;;;15.30;4.60;;;-143.32;100.00;52354.34;5014032;28;20442;-89
2021/06/07 03:17:46;;;;;;;29.70;17.70;;;15.30;1.00;;;-143.32;100.00;52366.47;5013702;28;20491;-88
2021/06/07 03:20:16;;;;;;;31.80;16.90;;;15.30;1.00;;;-143.32;100.00;52326.06;5014189;28;20524;-89
2021/06/07 03:22:43;;;;;;;25.63;17.77;;;15.30;1.00;;;-143.32;100.00;52320.03;5013764;28;20970;-88
2021/06/07 03:25:13;;;;;;;29.70;17.50;;;15.30;1.00;;;-143.32;100.00;52354.34;5013784;28;20964;-88
2021/06/07 03:27:41;;;;;;;30.10;17.00;;;15.30;1.00;;;-143.32;100.00;52336.16;5013853;28;20470;-88
2021/06/07 03:30:11;;;;;;;27.67;16.77;;;15.30;30.40;;;-143.32;100.00;52368.47;5013960;28;20561;-89
2021/06/07 03:32:38;;;;;;;30.27;17.13;;;15.30;5.80;;;-143.32;100.00;52342.22;5014573;28;20511;-89
2021/06/07 03:35:07;;;;;;;32.50;18.03;;;15.30;76.80;;;-143.32;100.00;52370.50;5013789;28;20496;-88
2021/06/07 03:37:34;;;;;;;35.40;19.00;;;15.30;1.40;;;-143.32;100.00;52324.06;5013451;28;20532;-88
2021/06/07 03:40:00;;;;;;;35.63;18.30;;;15.40;18.90;;;-143.32;100.00;52320.03;5015489;28;20449;-87
2021/06/07 03:42:46;;;;;;;27.00;19.03;;;15.40;64.30;;;-143.32;100.00;52364.44;5017852;28;20485;-89
2021/06/07 03:45:15;;;;;;;38.03;18.50;;;15.40;1.00;;;-143.32;100.00;52336.16;5016731;28;20453;-89
2021/06/07 03:47:42;;;;;;;34.20;19.63;;;15.40;1.00;;;-143.32;100.00;52366.47;5018607;28;20445;-88
2021/06/07 03:50:12;;;;;;;29.20;17.63;;;15.40;1.00;;;-143.32;100.00;52354.34;5017945;28;20786;-94
2021/06/07 03:52:40;;;;;;;32.43;18.07;;;15.40;1.00;;;-143.32;100.00;52358.38;5018723;28;20441;-93
2021/06/07 03:55:11;;;;;;;32.43;18.10;;;15.40;3.40;;;-143.32;100.00;52368.47;5018172;28;20446;-94
2021/06/07 03:57:38;;;;;;;29.83;16.97;;;15.40;9.10;;;-143.32;100.00;52356.38;5020653;28;20490;-93
2021/06/07 04:00:10;;;;;;;28.97;18.70;;;15.40;43.50;;;-143.32;100.00;52366.47;5021036;28;20916;-94
2021/06/07 04:02:41;;;;;;;35.57;19.37;;;15.40;1.00;;;-143.32;100.00;52368.47;5019297;28;20962;-93
2021/06/07 04:05:10;;;;;;;32.47;18.30;;;15.40;1.00;;;-143.32;100.00;52364.44;5023229;28;20802;-94
2021/06/07 04:07:37;;;;;;;26.97;17.20;;;15.40;1.00;;;-143.32;100.00;52358.38;5020001;28;20449;-93
2021/06/07 04:10:07;;;;;;;30.17;19.53;;;15.40;1.00;;;-143.32;100.00;52364.44;5018873;28;20446;-92
2021/06/07 04:12:34;;;;;;;33.07;18.23;;;15.40;1.00;;;-143.32;100.00;52346.28;5020361;28;20446;-93
2021/06/07 04:15:06;;;;;;;36.97;18.63;;;15.40;2.10;;;-143.32;100.00;52386.66;5019003;28;20430;-89
2021/06/07 04:17:33;;;;;;;25.97;18.53;;;15.40;3.00;;;-143.32;100.00;52362.41;4997760;28;20862;-89
2021/06/07 04:20:08;;;;;;;27.50;18.00;;;15.40;1.00;;;-143.32;100.00;52342.22;4997701;28;20451;-88
2021/06/07 04:22:35;;;;;;;25.20;17.00;;;15.30;99.90;;;-143.32;100.00;52340.22;4997553;28;20450;-87
2021/06/07 04:25:03;;;;;;;29.13;18.70;;;15.40;99.90;;;-143.32;100.00;52324.06;4997989;28;20446;-88
2021/06/07 04:27:29;;;;;;;28.47;18.00;;;15.40;59.50;;;-143.32;100.00;52336.16;4997237;28;20945;-88
2021/06/07 04:29:56;;;;;;;34.63;18.20;;;15.40;1.00;;;-143.32;100.00;52334.16;4997809;28;20455;-89
2021/06/07 04:32:24;;;;;;;27.93;17.50;;;15.40;53.90;;;-143.32;100.00;52348.28;4997110;28;20455;-89
2021/06/07 04:34:51;;;;;;;29.73;18.47;;;15.50;33.70;;;-143.32;100.00;52320.03;4997340;28;20522;-88
2021/06/07 04:37:18;;;;;;;30.33;17.63;;;15.40;1.00;;;-143.32;100.00;52354.34;4997198;28;20492;-89
2021/06/07 04:39:44;;;;;;;26.10;17.53;;;15.40;93.80;;;-143.32;100.00;52356.38;4997244;28;20454;-88
2021/06/07 04:42:11;;;;;;;24.90;17.20;;;15.40;1.00;;;-143.32;100.00;52344.25;4997000;28;20534;-89
2021/06/07 04:44:38;;;;;;;28.00;16.43;;;15.40;1.00;;;-143.32;100.00;52352.31;4998033;28;20838;-87
2021/06/07 04:47:05;;;;;;;28.90;16.30;;;15.40;1.00;;;-143.32;100.00;52378.56;5000653;28;20443;-94
2021/06/07 04:53:14;;;;;;;31.03;17.63;;;15.40;23.60;;;-143.32;100.00;52372.50;4999968;28;20418;-93
2021/06/07 05:00:25;;;;;;;21.47;15.97;;;15.50;1.00;;;-143.32;100.00;52330.13;4939946;29;20489;-94
2021/06/07 05:02:52;;;;;;;20.63;15.83;;;15.50;1.00;;;-143.32;100.00;52370.50;4960212;28;20505;-91
2021/06/07 05:05:21;;;;;;;24.50;15.77;;;15.60;1.00;;;-143.32;100.00;52372.50;4997035;28;20443;-94
2021/06/07 05:07:51;;;;;;;23.93;15.03;;;15.50;1.00;;;-143.32;100.00;52348.28;4998557;28;20918;-93
2021/06/07 05:10:19;;;;;;;20.17;15.53;;;15.60;1.00;;;-143.32;100.00;52362.41;4996926;28;20446;-93
2021/06/07 05:12:48;;;;;;;22.10;16.10;;;15.70;1.00;;;-143.32;100.00;52366.47;4996866;28;20505;-93
2021/06/07 05:15:17;;;;;;;22.73;15.93;;;15.70;99.90;;;-143.32;100.00;52340.22;4996533;28;20458;-94
2021/06/07 05:17:44;;;;;;;28.47;16.60;;;15.80;99.90;;;-143.32;100.00;52336.16;4997684;28;20538;-93
2021/06/07 05:20:15;;;;;;;27.57;14.97;;;15.80;99.90;;;-143.32;100.00;52340.22;4998044;28;20467;-92
2021/06/07 05:22:41;;;;;;;20.87;14.43;;;15.80;99.90;;;-143.32;100.00;52344.25;4998346;28;20486;-93
2021/06/07 05:25:10;;;;;;;22.63;15.40;;;15.90;99.90;;;-143.32;100.00;52332.13;4997294;28;20779;-94
2021/06/07 05:27:39;;;;;;;30.43;14.90;;;15.90;99.90;;;-143.32;100.00;52328.09;4997175;28;20470;-93
2021/06/07 05:30:08;;;;;;;22.23;15.87;;;15.90;99.90;;;-143.32;100.00;52330.13;4996998;28;20459;-92
2021/06/07 05:32:35;;;;;;;25.50;16.30;;;15.90;99.90;;;-143.32;100.00;52348.28;4996548;28;20522;-93
2021/06/07 05:35:02;;;;;;;25.13;15.47;;;16.00;99.90;;;-143.32;100.00;52324.06;4996022;28;20475;-92
2021/06/07 05:37:29;;;;;;;23.50;15.40;;;15.90;99.90;;;-143.32;100.00;52342.22;4996853;28;20495;-92
2021/06/07 05:39:56;;;;;;;26.97;15.93;;;16.00;99.90;;;-143.32;100.00;52366.47;4996240;28;20462;-94
2021/06/07 05:42:23;;;;;;;23.87;16.30;;;15.90;99.90;;;-143.32;100.00;52332.13;4996146;28;20459;-94
2021/06/07 05:45:01;;;;;;;21.53;17.00;;;15.90;99.90;;;-143.32;100.00;52368.47;4996435;28;20506;-93
2021/06/07 05:47:28;;;;;;;23.47;16.40;;;15.90;99.90;;;-143.32;100.00;52340.22;4996252;28;20473;-92
2021/06/07 05:49:54;;;;;;;22.57;16.60;;;15.90;99.90;;;-143.32;100.00;52362.41;4995841;28;20451;-94
2021/06/07 05:52:21;;;;;;;21.03;15.43;;;15.90;99.90;;;-143.32;100.00;52356.38;4996269;28;20922;-91
2021/06/07 05:54:48;;;;;;;32.10;16.00;;;15.90;99.90;;;-143.32;100.00;52358.38;4996560;28;20461;-92
2021/06/07 05:57:15;;;;;;;18.70;14.90;;;16.00;99.90;;;-143.32;100.00;52334.16;4995680;28;20483;-92
2021/06/07 05:59:43;;;;;;;25.83;15.30;;;16.00;99.90;;;-143.32;100.00;52328.09;4996873;28;20494;-93
2021/06/07 06:02:12;;;;;;;27.33;15.87;;;16.00;99.90;;;-143.32;100.00;52356.38;4995184;28;20452;-93
2021/06/07 06:04:40;;;;;;;24.60;15.60;;;16.10;99.90;;;-143.32;100.00;52307.91;4996285;28;20470;-92
2021/06/07 06:07:15;;;;;;;33.13;16.30;;;16.20;99.90;;;-143.32;100.00;52285.69;4995530;28;20479;-91
2021/06/07 06:09:41;;;;;;;20.73;14.33;;;16.40;99.90;;;-143.32;100.00;52332.13;4995824;28;20801;-93
2021/06/07 06:12:09;;;;;;;18.90;14.83;;;16.60;50.80;;;-143.32;100.00;52281.66;4995566;28;20475;-92
2021/06/07 06:14:36;;;;;;;21.63;13.47;;;16.70;29.50;;;-143.32;98.31;52206.94;4995972;28;20454;-94
2021/06/07 06:17:05;;;;;;;19.83;13.10;;;17.10;1.00;;;-143.32;96.32;52198.88;5002082;28;20434;-93
2021/06/07 06:19:33;;;;;;;18.53;13.80;;;17.60;1.00;;;-143.32;95.50;52134.28;5015196;28;20885;-95
2021/06/07 06:22:04;;;;;;;18.20;13.00;;;17.80;1.00;;;-143.32;94.32;52144.38;5015230;28;20913;-93
2021/06/07 06:24:30;;;;;;;19.37;13.13;;;18.00;99.90;;;-143.32;94.53;52150.41;5015226;28;20881;-92
2021/06/07 06:26:57;;;;;;;22.03;14.30;;;18.10;99.90;;;-143.32;94.27;52148.41;5015141;28;20449;-91
2021/06/07 06:29:27;;;;;;;19.83;14.40;;;18.10;99.90;;;-143.32;93.98;52178.69;5015857;28;20450;-93
2021/06/07 06:31:56;;;;;;;18.60;13.90;;;18.10;99.90;;;-143.32;93.59;52134.28;5015529;28;20802;-93
2021/06/07 06:34:23;;;;;;;17.87;13.67;;;18.10;99.90;;;-143.32;93.77;52108.03;5014744;28;20478;-94
2021/06/07 06:36:51;;;;;;;28.60;15.50;;;18.20;99.90;;;-143.32;93.10;52103.97;5015146;28;20542;-95
2021/06/07 06:39:18;;;;;;;20.30;14.30;;;18.40;99.90;;;-143.32;91.15;52057.56;5014156;28;20544;-93
2021/06/07 06:41:45;;;;;;;18.83;13.37;;;18.80;99.90;;;-143.32;90.31;52055.53;5014573;28;20512;-93
2021/06/07 06:44:14;;;;;;;19.73;13.90;;;19.10;99.90;;;-143.32;89.15;52005.06;5014751;28;20426;-96
2021/06/07 06:46:40;;;;;;;28.43;14.40;;;19.40;95.70;;;-143.32;89.46;52001.03;5016473;28;20532;-91
2021/06/07 06:49:07;;;;;;;18.70;13.63;;;19.40;66.90;;;-143.32;89.44;52011.13;5014982;28;20766;-93
2021/06/07 06:51:34;;;;;;;19.00;13.10;;;19.40;92.50;;;-143.32;90.26;52007.06;4996919;28;20482;-93
2021/06/07 06:54:04;;;;;;;16.10;14.27;;;19.30;99.90;;;-143.32;91.25;52077.75;5015045;28;20443;-93
2021/06/07 06:56:30;;;;;;;21.37;14.97;;;19.10;99.90;;;-143.32;92.16;52069.66;5014168;28;20458;-91
2021/06/07 06:58:59;;;;;;;21.23;14.20;;;18.90;99.90;;;-143.32;91.37;52049.47;5014343;28;20537;-91
2021/06/07 07:01:47;;;;;;;23.50;13.93;;;19.00;99.90;;;-143.32;91.35;52035.34;5002219;28;20803;-94
2021/06/07 07:04:14;;;;;;;18.37;12.10;;;19.00;99.90;;;-143.32;91.71;52108.03;4999466;28;20435;-93
2021/06/07 07:06:51;;;;;;;;;;;;;;;;;;;;;
2021/06/07 07:09:20;;;;;;;23.03;14.10;;;18.90;99.90;;;-143.32;91.80;52089.84;5019058;28;20532;-92
2021/06/07 07:11:47;;;;;;;22.70;14.47;;;18.70;99.90;;;-143.32;91.85;52087.84;5018215;28;20979;-93
2021/06/07 07:14:13;;;;;;;24.00;13.20;;;18.80;99.90;;;-143.32;91.21;52055.53;5015276;28;20457;-90
2021/06/07 07:16:43;;;;;;;25.93;13.93;;;18.80;99.90;;;-143.32;91.00;52049.47;5018418;28;20454;-89
2021/06/07 07:19:12;;;;;;;14.87;12.10;;;19.00;99.90;;;-143.32;90.51;52041.41;5016584;28;20486;-90
2021/06/07 07:21:41;;;;;;;17.50;12.47;;;19.10;99.90;;;-143.32;90.55;52025.25;5014901;28;20471;-89
2021/06/07 07:24:11;;;;;;;19.03;12.13;;;19.10;99.90;;;-143.32;90.03;52041.41;5009513;28;20473;-92
2021/06/07 07:26:40;;;;;;;17.00;11.37;;;19.20;99.90;;;-143.32;89.92;52001.03;5003242;28;20969;-89
2021/06/07 07:29:06;;;;;;;18.43;12.00;;;19.30;99.90;;;-143.32;90.11;51950.56;5001842;28;20442;-90
2021/06/07 07:31:33;;;;;;;19.17;11.47;;;19.30;99.90;;;-143.32;90.24;51976.78;5001292;28;20873;-89
2021/06/07 07:34:06;;;;;;;17.87;12.20;;;19.60;99.90;;;-143.32;88.92;51958.63;5000674;28;20526;-90
2021/06/07 07:36:32;;;;;;;14.20;11.37;;;19.70;51.30;;;-143.32;88.17;51958.63;5020364;28;20500;-89
2021/06/07 07:38:59;;;;;;;15.10;11.63;;;19.90;1.00;;;-143.32;89.16;51970.75;5018828;28;21054;-87
2021/06/07 07:41:27;;;;;;;14.63;11.83;;;19.70;13.00;;;-143.32;88.93;51999.00;5001520;28;20435;-89
2021/06/07 07:43:55;;;;;;;18.57;12.70;;;19.60;1.00;;;-143.32;90.54;52033.31;5001218;28;20459;-89
2021/06/07 07:46:24;;;;;;;25.20;13.57;;;19.40;96.70;;;-143.32;91.23;52049.47;5028096;28;20480;-89
2021/06/07 07:48:58;;;;;;;16.20;12.83;;;19.20;99.90;;;-143.32;92.28;52033.31;5026800;28;20500;-90
2021/06/07 07:51:25;;;;;;;17.53;13.30;;;19.00;99.90;;;-143.32;90.61;52073.69;5021298;28;20525;-89
2021/06/07 07:53:52;;;;;;;18.57;12.33;;;19.00;99.90;;;-143.32;90.29;52069.66;5027269;28;20465;-92
2021/06/07 07:56:19;;;;;;;15.10;12.20;;;18.90;99.90;;;-143.32;90.45;52093.88;5027518;28;20462;-90
2021/06/07 07:58:46;;;;;;;14.00;12.43;;;19.00;99.90;;;-143.32;90.16;52103.97;5001672;28;21064;-89
2021/06/07 08:01:17;;;;;;;14.57;12.40;;;19.10;99.90;;;-143.32;89.79;52071.69;5002420;28;20517;-90
2021/06/07 08:03:44;;;;;;;16.43;11.33;;;19.10;97.70;;;-143.32;90.44;52075.72;5006133;28;20786;-90
2021/06/07 08:06:11;;;;;;;19.53;13.37;;;19.10;99.90;;;-143.32;90.78;52087.84;5017832;28;20446;-89
2021/06/07 08:08:38;;;;;;;16.40;13.47;;;19.00;99.90;;;-143.32;92.65;52164.56;5019293;28;20446;-87
2021/06/07 08:11:04;;;;;;;17.97;12.80;;;18.60;99.90;;;-143.32;93.09;52099.94;5019658;28;20446;-87
2021/06/07 08:13:31;;;;;;;19.93;12.97;;;18.50;99.90;;;-143.32;92.01;52067.66;5019730;28;20489;-84
2021/06/07 08:15:58;;;;;;;18.50;12.77;;;18.70;99.90;;;-143.32;91.50;52103.97;5014971;28;20474;-85
2021/06/07 08:18:26;;;;;;;20.50;11.53;;;18.80;99.90;;;-143.32;91.54;52087.84;5018302;28;20535;-85
2021/06/07 08:20:52;;;;;;;19.80;13.20;;;18.70;99.90;;;-143.32;91.70;52118.13;5017898;28;20461;-85
2021/06/07 08:23:19;;;;;;;19.63;13.50;;;18.70;99.90;;;-143.32;91.39;52140.31;5017897;28;20481;-85
2021/06/07 08:25:45;;;;;;;15.70;12.10;;;18.60;99.90;;;-143.32;91.66;52114.09;5011966;28;20826;-86
2021/06/07 08:28:12;;;;;;;23.03;13.20;;;18.60;99.90;;;-143.32;90.97;52150.41;5021694;28;20465;-85
2021/06/07 08:31:00;;;;;;;15.93;12.13;;;18.60;99.90;;;-143.32;91.32;52152.44;5012019;28;20466;-89
2021/06/07 08:33:43;;;;;;;16.43;13.50;;;18.60;99.90;;;-143.32;91.04;52106.00;5017224;28;20459;-92
2021/06/07 08:36:10;;;;;;;18.63;12.77;;;18.70;99.90;;;-143.32;91.02;52079.75;5007776;28;20442;-90
2021/06/07 08:38:40;;;;;;;18.80;12.80;;;18.80;99.90;;;-143.32;90.84;52110.03;5023671;28;20493;-89
2021/06/07 08:41:16;;;;;;;15.47;12.50;;;19.00;99.90;;;-143.32;91.12;52085.81;5022307;28;20524;-89
2021/06/07 08:43:44;;;;;;;18.03;14.07;;;18.90;99.90;;;-143.32;90.40;52089.84;5027091;28;20855;-86
2021/06/07 08:46:28;;;;;;;18.17;14.00;;;18.90;99.90;;;-143.32;91.83;52063.59;5045291;28;20505;-90
2021/06/07 08:48:56;;;;;;;18.77;13.50;;;18.90;99.90;;;-143.32;90.12;52095.91;5041023;28;20453;-87
2021/06/07 08:51:25;;;;;;;20.50;13.67;;;18.90;99.90;;;-143.32;90.07;52118.13;5043949;28;20448;-89
2021/06/07 08:53:54;;;;;;;21.00;15.90;;;18.90;99.90;;;-143.32;89.94;52134.28;5044562;28;20441;-89
2021/06/07 08:56:24;;;;;;;21.73;17.30;;;18.90;99.90;;;-143.32;90.09;52108.03;5032714;28;20446;-90
2021/06/07 08:58:51;;;;;;;22.77;17.87;;;18.80;99.90;;;-143.32;90.19;52120.13;5021179;28;20485;-90
2021/06/07 09:01:18;;;;;;;29.37;16.50;;;18.80;99.90;;;-143.32;89.85;52097.94;5022597;28;20956;-89
2021/06/07 09:03:45;;;;;;;15.93;13.30;;;19.00;99.90;;;-143.32;88.27;52101.97;5019862;28;20462;-90
2021/06/07 09:06:16;;;;;;;22.97;16.77;;;19.10;46.40;;;-143.32;88.72;52055.53;5022339;28;20461;-88
2021/06/07 09:09:21;;;;;;;24.13;16.43;;;19.20;38.50;;;-143.32;88.31;52011.13;5009708;28;20454;-92
2021/06/07 09:12:00;;;;;;;18.50;14.10;;;19.60;40.10;;;-143.32;87.05;51974.78;5006746;28;20482;-93
2021/06/07 09:14:31;;;;;;;20.83;14.80;;;19.80;1.00;;;-143.32;85.77;51958.63;5007182;28;20451;-95
2021/06/07 09:17:18;;;;;;;14.90;13.30;;;20.10;1.00;;;-143.32;87.12;51940.47;5122864;23;20568;-91
2021/06/07 09:19:48;;;;;;;20.73;13.17;;;20.10;1.00;;;;;;5029907;28;20465;-90
2021/06/07 09:29:45;;;;;;;20.10;11.67;;;20.30;1.00;;;-143.32;85.79;51992.94;4964325;28;20484;-93
2021/06/07 09:32:19;;;;;;;13.37;10.30;;;20.10;99.90;;;-143.32;85.42;52003.03;5025462;28;20442;-93
2021/06/07 09:35:13;;;;;;;16.90;11.53;;;20.00;99.90;;;-143.32;85.29;52067.66;5030248;28;20415;-96
2021/06/07 09:38:05;;;;;;;17.97;12.30;;;19.90;99.90;;;-143.32;86.16;52023.22;5024449;28;21010;-91
2021/06/07 09:40:33;;;;;;;22.17;11.77;;;19.90;1.00;;;-143.32;87.73;51988.91;5026086;28;20431;-92
2021/06/07 09:43:18;;;;;;;15.50;11.30;;;19.60;1.00;;;-143.32;87.86;52025.25;5023614;28;20925;-91
2021/06/07 09:45:49;;;;;;;16.67;12.60;;;19.60;1.00;;;-143.32;88.21;51999.00;5018693;28;20411;-91
2021/06/07 09:48:17;;;;;;;15.47;11.83;;;19.60;1.00;;;-143.32;87.20;52011.13;5020230;28;20917;-94
2021/06/07 09:50:55;;;;;;;18.43;11.60;;;19.70;1.00;;;-143.32;87.73;51984.88;5018310;28;20438;-94
2021/06/07 09:53:47;;;;;;;12.87;10.47;;;19.80;1.00;;;-143.32;87.33;52015.16;5000940;28;20447;-93
2021/06/07 09:56:17;;;;;;;13.33;10.37;;;19.80;1.00;;;-143.32;86.63;52045.44;4997316;28;21028;-93
2021/06/07 09:58:46;;;;;;;11.60;10.10;;;19.70;1.00;;;-143.32;85.93;52041.41;4996968;28;20486;-93
2021/06/07 10:01:16;;;;;;;10.90;8.70;;;19.70;1.00;;;-143.32;85.87;52120.13;4995893;28;20459;-93
2021/06/07 10:03:48;;;;;;;13.33;8.20;;;19.60;1.00;;;-143.32;85.79;52091.88;4997259;28;20802;-91
2021/06/07 10:06:29;;;;;;;16.37;8.60;;;19.50;1.00;;;-143.32;86.21;52118.13;4999385;28;20486;-94
2021/06/07 10:08:59;;;;;;;12.87;7.87;;;19.50;1.00;;;-143.32;87.01;52067.66;4999596;28;20431;-94
2021/06/07 10:17:58;;;;;;;14.47;9.20;;;19.60;99.90;;;-143.32;85.44;52118.13;5003303;28;20482;-94
2021/06/07 11:31:50;;;;;;;14.17;9.47;;;20.20;89.60;;;-143.32;82.42;52077.75;5319885;22;20895;-86
2021/06/07 11:34:46;;;;;;;10.70;8.43;;;20.20;49.10;;;-143.32;81.68;52065.63;5014432;28;20457;-89
2021/06/07 11:37:32;;;;;;;26.57;8.60;;;20.30;99.90;;;-143.32;82.11;52079.75;5013653;28;20456;-88